Etusivu
METAR-TAF:

METAR-TAF

Lentoasemat :

Nassau, Bahama

Lynden Pindlingin kansainvälinen lentoasema

Leveyspiiri: 25-03N, Pituuspiiri: 077-28W, korkeus merenpinnasta: 3 m

Tämänhetkinen sää

Tämä raportti tehtiin 29 minuuttia sitten, kello 07.00 UTC
Tuuli 11 kn lännestä
Lämpötila 21°C
Kosteus 73%
Ilmanpaine 1015 hPa
Näkyvyys 10 km tai enemmän
Hajanaisia pilviä 2000 ft:n korkeudessa

METAR: MYNN 130700Z 26011KT 9999 SCT020 21/16 A2996

Aika: 02:29 (07:29 UTC)

Sääennuste

Tämä raportti tehtiin 2 tuntia ja 9 minuuttia sitten, kello 05.20 UTC
Ennuste voimassa 13. päivästä klo 06 UTC - 14. päivään klo 06 UTC
Tuuli 3 kn lännestä/lounaasta
Näkyvyys 10 km tai enemmän
Muutamia pilviä 2200 ft:n korkeudessa
Tulossa
13. päivästä klo 14 UTC - 13. päivään klo 16 UTC
Tuuli 10 kn pohjoisen/luoteesta

TAF: MYNN 130520Z 1306/1406 24003KT 9999 FEW022 BECMG 1314/1316 33010KT

Säähavainnot ja -ennusteet yli 4000 lentoasemalta (METAR- ja TAF-raportit).

Käytössä olevat sääasemat on merkitty karttaan keltaisilla ja punaisilla pisteillä.

Aseta hiiri pisteen päälle nähdäksesi sääaseman nimen.

Klikkaa sitten nähdäksesi säähavainnot ja -ennusteet.

Kartan vaihtaminen: klikkaa mustalla rastilla varustettuja vihreitä pisteitä, niin voit zoomata sisään; viivalla varustettua vihreää pistettä, niin voit zoomata ulos tai vihreitä nuolia, niin pääset viereisille kartoille.


METAR-TAF: